createdAt,value
2022-11-01T00:01:56.013Z,30.13
2022-11-01T00:04:24.479Z,29.02
2022-11-01T00:06:52.774Z,27.75
2022-11-01T00:09:20.944Z,28.92
2022-11-01T00:11:51.706Z,28.92
2022-11-01T00:14:22.319Z,29.35
2022-11-01T00:16:50.729Z,30.17
2022-11-01T00:19:19.515Z,31.70
2022-11-01T00:21:47.813Z,28.95
2022-11-01T00:24:15.945Z,30.05
2022-11-01T00:26:44.180Z,30.25
2022-11-01T00:29:15.897Z,33.10
2022-11-01T00:31:45.397Z,32.00
2022-11-01T00:34:13.449Z,31.50
2022-11-01T00:36:41.891Z,29.70
2022-11-01T00:39:13.400Z,28.17
2022-11-01T00:41:41.861Z,28.90
2022-11-01T00:44:10.098Z,30.80
2022-11-01T00:46:38.120Z,30.98
2022-11-01T00:49:07.567Z,31.75
2022-11-01T00:51:35.718Z,31.27
2022-11-01T00:54:03.801Z,31.30
2022-11-01T00:56:31.900Z,31.52
2022-11-01T00:58:59.940Z,31.85
2022-11-01T01:01:28.256Z,29.27
2022-11-01T01:03:56.453Z,33.42
2022-11-01T01:06:26.030Z,32.72
2022-11-01T01:08:54.222Z,30.63
2022-11-01T01:11:22.336Z,30.75
2022-11-01T01:13:50.416Z,30.80
2022-11-01T01:16:18.625Z,29.50
2022-11-01T01:18:47.782Z,29.77
2022-11-01T01:21:17.537Z,30.67
2022-11-01T01:23:48.752Z,31.23
2022-11-01T01:26:16.813Z,30.52
2022-11-01T01:28:46.652Z,32.80
2022-11-01T01:31:15.295Z,33.20
2022-11-01T01:33:43.361Z,31.45
2022-11-01T01:36:13.274Z,30.15
2022-11-01T01:38:41.442Z,30.23
2022-11-01T01:41:28.740Z,30.50
2022-11-01T01:43:56.971Z,33.22
2022-11-01T01:46:25.322Z,29.90
2022-11-01T01:48:57.963Z,32.20
2022-11-01T01:51:28.833Z,30.20
2022-11-01T01:53:58.485Z,31.02
2022-11-01T01:56:32.008Z,32.03
2022-11-01T01:59:04.267Z,32.55
2022-11-01T02:01:36.585Z,30.27
2022-11-01T02:04:06.114Z,29.50
2022-11-01T02:06:35.861Z,29.23
2022-11-01T02:09:06.579Z,30.83
2022-11-01T02:11:36.282Z,30.60
2022-11-01T02:14:04.811Z,30.63
2022-11-01T02:16:45.073Z,32.45
2022-11-01T02:19:52.312Z,29.60
2022-11-01T02:22:34.865Z,30.63
2022-11-01T02:25:39.997Z,31.88
2022-11-01T02:28:26.514Z,30.08
2022-11-01T02:31:06.178Z,29.48
2022-11-01T02:33:40.425Z,30.73
2022-11-01T02:36:14.137Z,30.10
2022-11-01T02:38:50.051Z,30.52
2022-11-01T02:41:24.448Z,30.17
2022-11-01T02:43:59.511Z,26.90
2022-11-01T02:46:49.264Z,29.88
2022-11-01T02:49:20.417Z,30.77
2022-11-01T02:51:50.190Z,29.58
2022-11-01T02:54:22.751Z,29.25
2022-11-01T02:56:51.796Z,29.08
2022-11-01T02:59:25.247Z,26.98
2022-11-01T03:02:01.197Z,27.63
2022-11-01T03:04:31.542Z,27.77
2022-11-01T03:07:03.554Z,27.77
2022-11-01T03:09:33.044Z,25.73
2022-11-01T03:12:05.834Z,26.42
2022-11-01T03:14:40.090Z,27.13
2022-11-01T03:17:13.195Z,28.38
2022-11-01T03:19:49.573Z,27.20
2022-11-01T03:22:21.882Z,26.73
2022-11-01T03:24:53.859Z,25.52
2022-11-01T03:27:29.263Z,25.60
2022-11-01T03:30:01.809Z,24.20
2022-11-01T03:32:33.660Z,24.85
2022-11-01T03:35:05.563Z,24.08
2022-11-01T03:37:37.440Z,24.45
2022-11-01T03:40:07.765Z,23.17
2022-11-01T03:42:38.330Z,23.65
2022-11-01T03:45:11.136Z,21.42
2022-11-01T03:47:39.589Z,22.00
2022-11-01T03:50:20.413Z,23.90
2022-11-01T03:52:48.423Z,23.25
2022-11-01T03:55:21.002Z,22.40
2022-11-01T03:57:49.798Z,21.45
2022-11-01T04:00:21.143Z,22.48
2022-11-01T04:02:50.143Z,21.67
2022-11-01T04:05:20.940Z,22.25
2022-11-01T04:07:49.600Z,21.02
2022-11-01T04:10:17.585Z,23.50
2022-11-01T04:12:47.100Z,22.67
2022-11-01T04:15:32.551Z,21.75
2022-11-01T04:18:23.161Z,20.75
2022-11-01T04:20:53.673Z,18.75
2022-11-01T04:23:21.668Z,20.35
2022-11-01T04:25:49.976Z,19.23
2022-11-01T04:28:17.947Z,20.23
2022-11-01T04:30:45.918Z,20.77
2022-11-01T04:33:14.083Z,19.80
2022-11-01T04:35:42.070Z,19.15
2022-11-01T04:38:12.699Z,18.70
2022-11-01T04:40:41.622Z,18.85
2022-11-01T04:43:10.120Z,18.30
2022-11-01T04:45:38.174Z,18.25
2022-11-01T04:48:13.637Z,16.92
2022-11-01T04:50:42.667Z,17.00
2022-11-01T04:53:12.057Z,16.52
2022-11-01T04:55:40.483Z,16.25
2022-11-01T04:58:10.744Z,16.52
2022-11-01T05:00:39.528Z,16.27
2022-11-01T05:03:09.618Z,14.88
2022-11-01T05:05:39.071Z,14.38
2022-11-01T05:08:08.509Z,13.13
2022-11-01T05:10:39.773Z,13.85
2022-11-01T05:13:08.235Z,13.40
2022-11-01T05:15:40.035Z,12.82
2022-11-01T05:18:16.167Z,12.65
2022-11-01T05:20:44.207Z,11.57
2022-11-01T05:23:12.212Z,11.38
2022-11-01T05:25:41.660Z,11.75
2022-11-01T05:28:14.419Z,11.45
2022-11-01T05:30:43.528Z,12.80
2022-11-01T05:33:12.320Z,12.50
2022-11-01T05:35:40.339Z,11.23
2022-11-01T05:38:09.286Z,10.65
2022-11-01T05:40:37.240Z,11.05
2022-11-01T05:43:06.916Z,10.05
2022-11-01T05:45:35.281Z,10.05
2022-11-01T05:48:04.304Z,10.02
2022-11-01T05:50:32.634Z,9.30
2022-11-01T05:53:07.013Z,10.00
2022-11-01T05:55:35.253Z,8.65
2022-11-01T05:58:03.511Z,8.68
2022-11-01T06:00:33.435Z,8.38
2022-11-01T06:03:02.180Z,8.43
2022-11-01T06:05:30.913Z,8.88
2022-11-01T06:08:01.640Z,7.10
2022-11-01T06:10:29.955Z,7.75
2022-11-01T06:12:58.414Z,8.02
2022-11-01T06:15:26.722Z,6.75
2022-11-01T06:17:58.847Z,6.00
2022-11-01T06:20:27.755Z,6.28
2022-11-01T06:22:55.766Z,5.90
2022-11-01T06:25:23.871Z,6.50
2022-11-01T06:27:51.987Z,5.43
2022-11-01T06:30:19.959Z,6.13
2022-11-01T06:32:47.955Z,5.07
2022-11-01T06:35:17.573Z,5.60
2022-11-01T06:37:45.523Z,4.65
2022-11-01T06:40:14.103Z,5.32
2022-11-01T06:42:46.483Z,5.07
2022-11-01T06:45:15.120Z,5.38
2022-11-01T06:47:48.035Z,4.95
2022-11-01T06:50:17.873Z,5.07
2022-11-01T06:52:45.956Z,4.90
2022-11-01T06:55:14.142Z,4.93
2022-11-01T06:57:42.451Z,4.85
2022-11-01T07:00:12.127Z,4.80
2022-11-01T07:02:40.370Z,5.22
2022-11-01T07:05:09.054Z,4.22
2022-11-01T07:07:38.412Z,4.38
2022-11-01T07:10:07.431Z,4.90
2022-11-01T07:12:35.613Z,4.90
2022-11-01T07:15:04.249Z,4.38
2022-11-01T07:17:32.793Z,4.32
2022-11-01T07:20:00.795Z,4.57
2022-11-01T07:22:28.822Z,4.68
2022-11-01T07:24:58.564Z,4.18
2022-11-01T07:27:26.519Z,4.50
2022-11-01T07:29:54.522Z,3.95
2022-11-01T07:32:23.434Z,4.78
2022-11-01T07:34:51.371Z,4.50
2022-11-01T07:37:19.365Z,4.18
2022-11-01T07:39:47.438Z,4.03
2022-11-01T07:42:17.047Z,4.30
2022-11-01T07:44:45.816Z,4.15
2022-11-01T07:47:14.343Z,3.88
2022-11-01T07:49:42.303Z,3.90
2022-11-01T07:52:10.272Z,3.78
2022-11-01T07:54:38.386Z,4.03
2022-11-01T07:57:06.790Z,3.20
2022-11-01T07:59:37.149Z,3.40
2022-11-01T08:02:07.888Z,2.90
2022-11-01T08:04:36.298Z,3.10
2022-11-01T08:07:04.268Z,2.22
2022-11-01T08:09:32.290Z,2.50
2022-11-01T08:12:01.081Z,2.40
2022-11-01T08:14:29.063Z,2.38
2022-11-01T08:17:01.871Z,2.30
2022-11-01T08:19:29.925Z,2.20
2022-11-01T08:21:59.496Z,1.65
2022-11-01T08:24:28.007Z,1.83
2022-11-01T08:26:56.031Z,1.70
2022-11-01T08:29:24.011Z,1.80
2022-11-01T08:31:52.065Z,1.55
2022-11-01T08:34:21.600Z,1.40
2022-11-01T08:36:49.584Z,1.33
2022-11-01T08:39:17.757Z,1.15
2022-11-01T08:41:49.552Z,1.20
2022-11-01T08:44:17.707Z,1.17
2022-11-01T08:46:45.949Z,1.10
2022-11-01T08:49:14.496Z,1.00
2022-11-01T08:51:44.089Z,0.85
2022-11-01T08:54:12.274Z,1.00
2022-11-01T08:56:40.240Z,1.30
2022-11-01T08:59:08.394Z,1.08
2022-11-01T09:01:37.769Z,1.15
2022-11-01T09:04:07.427Z,1.20
2022-11-01T09:06:36.559Z,1.27
2022-11-01T09:09:06.201Z,0.98
2022-11-01T09:11:34.210Z,1.10
2022-11-01T09:14:02.228Z,1.20
2022-11-01T09:16:30.776Z,1.23
2022-11-01T09:19:01.621Z,1.20
2022-11-01T09:21:31.829Z,1.05
2022-11-01T09:24:00.191Z,1.20
2022-11-01T09:26:29.852Z,1.40
2022-11-01T09:28:58.873Z,1.30
2022-11-01T09:31:29.265Z,1.50
2022-11-01T09:33:58.254Z,1.45
2022-11-01T09:36:26.916Z,1.88
2022-11-01T09:38:55.763Z,1.75
2022-11-01T09:41:32.629Z,1.58
2022-11-01T09:44:02.883Z,1.65
2022-11-01T09:46:34.453Z,1.85
2022-11-01T09:49:03.834Z,1.70
2022-11-01T09:51:31.837Z,1.90
2022-11-01T09:54:04.382Z,2.03
2022-11-01T09:56:41.988Z,1.90
2022-11-01T09:59:19.759Z,2.00
2022-11-01T10:02:07.242Z,1.80
2022-11-01T10:04:57.981Z,1.70
2022-11-01T10:07:33.969Z,1.90
2022-11-01T10:10:12.902Z,2.17
2022-11-01T10:12:56.483Z,2.17
2022-11-01T10:15:39.317Z,2.30
2022-11-01T10:18:21.125Z,2.50
2022-11-01T10:20:49.907Z,2.53
2022-11-01T10:23:19.051Z,2.58
2022-11-01T10:25:53.042Z,2.30
2022-11-01T10:28:26.382Z,2.15
2022-11-01T10:30:58.359Z,3.20
2022-11-01T10:33:31.503Z,2.10
2022-11-01T10:36:03.424Z,2.75
2022-11-01T10:39:10.393Z,3.00
2022-11-01T10:41:33.201Z,2.78
2022-11-01T10:44:06.533Z,2.63
2022-11-01T10:46:39.866Z,3.05
2022-11-01T10:49:16.474Z,3.13
2022-11-01T10:51:46.151Z,2.47
2022-11-01T10:54:19.015Z,2.90
2022-11-01T10:56:50.836Z,2.30
2022-11-01T10:59:23.362Z,2.10
2022-11-01T11:01:53.366Z,2.70
2022-11-01T11:04:23.627Z,2.85
2022-11-01T11:06:52.471Z,2.42
2022-11-01T11:09:25.752Z,2.35
2022-11-01T11:11:57.938Z,2.80
2022-11-01T11:14:28.619Z,2.60
2022-11-01T11:16:58.517Z,2.30
2022-11-01T11:19:34.058Z,2.80
2022-11-01T11:22:03.667Z,2.78
2022-11-01T11:24:35.976Z,2.40
2022-11-01T11:27:12.612Z,2.40
2022-11-01T11:29:49.157Z,2.53
2022-11-01T11:32:19.893Z,2.35
2022-11-01T11:34:58.275Z,2.35
2022-11-01T11:37:29.289Z,2.42
2022-11-01T11:40:22.189Z,2.90
2022-11-01T11:42:51.129Z,2.75
2022-11-01T11:45:25.254Z,2.42
2022-11-01T11:47:53.311Z,2.80
2022-11-01T11:50:32.442Z,2.45
2022-11-01T11:53:06.360Z,2.35
2022-11-01T11:55:42.058Z,2.35
2022-11-01T11:58:28.023Z,2.33
2022-11-01T12:01:02.787Z,2.70
2022-11-01T12:03:31.628Z,2.58
2022-11-01T12:06:06.729Z,2.70
2022-11-01T12:08:45.990Z,2.33
2022-11-01T12:11:15.347Z,3.03
2022-11-01T12:13:45.600Z,2.10
2022-11-01T12:16:24.744Z,2.45
2022-11-01T12:18:56.076Z,2.50
2022-11-01T12:21:30.390Z,2.65
2022-11-01T12:24:05.257Z,2.75
2022-11-01T12:26:37.159Z,2.85
2022-11-01T12:29:16.314Z,2.28
2022-11-01T12:31:46.731Z,2.60
2022-11-01T12:34:20.608Z,2.67
2022-11-01T12:36:55.378Z,2.58
2022-11-01T12:39:38.024Z,2.20
2022-11-01T12:42:06.717Z,3.00
2022-11-01T12:44:37.869Z,3.20
2022-11-01T12:47:13.424Z,3.00
2022-11-01T12:49:48.891Z,2.90
2022-11-01T12:52:24.300Z,2.60
2022-11-01T12:55:01.674Z,3.55
2022-11-01T12:57:29.972Z,2.65
2022-11-01T12:59:58.252Z,2.70
2022-11-01T13:02:56.729Z,2.92
2022-11-01T13:05:30.161Z,2.83
2022-11-01T13:08:09.018Z,3.22
2022-11-01T13:10:39.129Z,3.58
2022-11-01T13:13:17.303Z,2.75
2022-11-01T13:15:56.606Z,3.10
2022-11-01T13:18:38.861Z,2.65
2022-11-01T13:21:15.270Z,3.05
2022-11-01T13:23:50.389Z,2.97
2022-11-01T13:26:24.862Z,2.35
2022-11-01T13:29:08.178Z,3.58
2022-11-01T13:31:55.583Z,2.70
2022-11-01T13:34:40.793Z,2.53
2022-11-01T13:37:19.310Z,2.92
2022-11-01T13:39:59.177Z,2.78
2022-11-01T13:42:31.938Z,2.70
2022-11-01T13:45:23.947Z,3.20
2022-11-01T13:48:00.912Z,3.22
2022-11-01T13:50:56.459Z,2.90
2022-11-01T13:53:32.196Z,3.10
2022-11-01T13:56:05.482Z,3.40
2022-11-01T13:58:33.878Z,2.95
2022-11-01T14:01:32.292Z,3.08
2022-11-01T14:04:48.199Z,3.15
2022-11-01T14:07:18.152Z,2.67
2022-11-01T14:09:48.395Z,3.20
2022-11-01T14:12:40.933Z,2.72
2022-11-01T14:15:22.049Z,2.60
2022-11-01T14:18:04.789Z,2.92
2022-11-01T14:20:51.272Z,2.75
2022-11-01T14:23:49.036Z,3.03
2022-11-01T14:26:37.559Z,2.65
2022-11-01T14:29:12.041Z,2.00
2022-11-01T14:31:41.342Z,2.58
2022-11-01T14:34:20.728Z,2.63
2022-11-01T14:36:50.903Z,2.50
2022-11-01T14:39:24.279Z,2.42
2022-11-01T14:41:56.387Z,2.53
2022-11-01T14:44:30.282Z,1.88
2022-11-01T14:47:02.643Z,2.13
2022-11-01T14:49:37.179Z,2.40
2022-11-01T14:52:11.463Z,2.75
2022-11-01T14:54:55.040Z,2.58
2022-11-01T14:57:27.794Z,2.03
2022-11-01T14:59:56.675Z,2.20
2022-11-01T15:02:27.753Z,2.50
2022-11-01T15:04:59.172Z,2.25
2022-11-01T15:07:31.216Z,2.15
2022-11-01T15:10:02.753Z,2.72
2022-11-01T15:12:34.589Z,2.83
2022-11-01T15:15:04.120Z,2.35
2022-11-01T15:17:35.882Z,2.53
2022-11-01T15:20:13.102Z,2.75
2022-11-01T15:22:42.934Z,2.50
2022-11-01T15:25:23.271Z,2.55
2022-11-01T15:27:52.204Z,2.45
2022-11-01T15:30:22.629Z,2.35
2022-11-01T15:32:54.237Z,2.30
2022-11-01T15:35:25.332Z,2.45
2022-11-01T15:37:55.795Z,2.28
2022-11-01T15:40:31.190Z,2.40
2022-11-01T15:43:00.546Z,2.10
2022-11-01T15:45:31.328Z,2.20
2022-11-01T15:48:02.923Z,2.33
2022-11-01T15:50:36.171Z,2.42
2022-11-01T15:53:08.519Z,2.03
2022-11-01T15:55:42.850Z,2.40
2022-11-01T15:58:18.915Z,1.98
2022-11-01T16:00:50.972Z,1.92
2022-11-01T16:03:23.043Z,2.78
2022-11-01T16:05:57.005Z,2.20
2022-11-01T16:08:30.223Z,2.40
2022-11-01T16:11:00.236Z,1.95
2022-11-01T16:13:28.399Z,2.10
2022-11-01T16:16:04.039Z,2.20
2022-11-01T16:18:35.231Z,2.03
2022-11-01T16:21:05.904Z,2.70
2022-11-01T16:23:34.362Z,2.08
2022-11-01T16:26:07.235Z,2.45
2022-11-01T16:28:40.820Z,2.15
2022-11-01T16:31:42.734Z,2.60
2022-11-01T16:34:25.110Z,2.65
2022-11-01T16:36:53.699Z,2.92
2022-11-01T16:39:29.850Z,2.42
2022-11-01T16:42:00.210Z,2.22
2022-11-01T16:44:28.237Z,2.75
2022-11-01T16:46:57.209Z,2.45
2022-11-01T16:49:27.911Z,2.55
2022-11-01T16:51:57.192Z,2.53
2022-11-01T16:54:25.571Z,2.30
2022-11-01T16:56:54.843Z,2.40
2022-11-01T16:59:28.157Z,2.20
2022-11-01T17:01:58.489Z,2.85
2022-11-01T17:04:28.179Z,2.78
2022-11-01T17:06:58.033Z,2.20
2022-11-01T17:09:28.745Z,2.20
2022-11-01T17:11:56.701Z,2.00
2022-11-01T17:14:35.502Z,2.38
2022-11-01T17:17:08.764Z,2.55
2022-11-01T17:19:41.202Z,2.38
2022-11-01T17:22:15.489Z,2.33
2022-11-01T17:24:43.704Z,1.95
2022-11-01T17:27:11.705Z,2.38
2022-11-01T17:29:41.037Z,2.78
2022-11-01T17:32:11.140Z,2.42
2022-11-01T17:34:41.569Z,2.20
2022-11-01T17:37:14.853Z,2.33
2022-11-01T17:39:42.935Z,2.47
2022-11-01T17:42:11.736Z,2.35
2022-11-01T17:44:41.332Z,2.05
2022-11-01T17:47:10.370Z,2.28
2022-11-01T17:49:39.236Z,2.45
2022-11-01T17:52:07.582Z,2.63
2022-11-01T17:54:35.930Z,2.05
2022-11-01T17:57:04.043Z,2.35
2022-11-01T17:59:33.634Z,2.75
2022-11-01T18:02:08.757Z,2.50
2022-11-01T18:04:37.284Z,2.17
2022-11-01T18:07:07.101Z,2.47
2022-11-01T18:09:37.588Z,2.38
2022-11-01T18:12:13.616Z,2.80
2022-11-01T18:15:02.063Z,2.95
2022-11-01T18:17:49.795Z,2.65
2022-11-01T18:20:31.819Z,2.55
2022-11-01T18:23:06.833Z,2.53
2022-11-01T18:25:42.882Z,2.65
2022-11-01T18:28:15.316Z,2.50
2022-11-01T18:30:52.415Z,2.75
2022-11-01T18:33:32.063Z,2.92
2022-11-01T18:36:07.823Z,2.38
2022-11-01T18:38:43.128Z,2.30
2022-11-01T18:41:16.435Z,2.45
2022-11-01T18:43:44.660Z,2.30
2022-11-01T18:46:26.298Z,3.22
2022-11-01T18:49:00.798Z,2.53
2022-11-01T18:51:31.165Z,2.17
2022-11-01T18:54:19.900Z,2.30
2022-11-01T18:56:51.120Z,2.30
2022-11-01T18:59:27.514Z,2.40
2022-11-01T19:01:59.798Z,2.22
2022-11-01T19:04:32.274Z,2.10
2022-11-01T19:07:09.685Z,2.35
2022-11-01T19:09:40.296Z,2.42
2022-11-01T19:12:15.728Z,2.03
2022-11-01T19:14:45.127Z,1.90
2022-11-01T19:17:21.136Z,2.45
2022-11-01T19:19:51.541Z,2.17
2022-11-01T19:22:34.211Z,2.75
2022-11-01T19:25:03.507Z,2.50
2022-11-01T19:27:31.492Z,2.05
2022-11-01T19:30:00.670Z,2.20
2022-11-01T19:32:28.776Z,2.10
2022-11-01T19:34:58.235Z,2.30
2022-11-01T19:37:33.229Z,1.67
2022-11-01T19:40:13.379Z,1.85
2022-11-01T19:42:41.448Z,2.20
2022-11-01T19:45:31.331Z,1.90
2022-11-01T19:47:59.880Z,2.15
2022-11-01T19:50:38.199Z,2.20
2022-11-01T19:53:20.308Z,2.15
2022-11-01T19:55:52.467Z,2.70
2022-11-01T19:58:29.815Z,2.08
2022-11-01T20:01:33.354Z,2.28
2022-11-01T20:04:03.078Z,2.20
2022-11-01T20:06:37.263Z,2.30
2022-11-01T20:09:07.451Z,2.67
2022-11-01T20:11:36.002Z,2.38
2022-11-01T20:14:04.521Z,2.40
2022-11-01T20:16:32.536Z,2.15
2022-11-01T20:19:01.100Z,2.45
2022-11-01T20:21:29.278Z,2.05
2022-11-01T20:23:59.450Z,2.70
2022-11-01T20:26:27.758Z,2.22
2022-11-01T20:28:55.895Z,2.50
2022-11-01T20:31:25.012Z,2.65
2022-11-01T20:33:53.204Z,2.53
2022-11-01T20:36:21.883Z,2.53
2022-11-01T20:38:50.185Z,2.50
2022-11-01T20:41:20.090Z,2.10
2022-11-01T20:43:48.060Z,2.30
2022-11-01T20:46:16.171Z,2.10
2022-11-01T20:48:46.200Z,2.22
2022-11-01T20:51:14.533Z,2.30
2022-11-01T20:53:42.673Z,2.28
2022-11-01T20:56:10.716Z,2.53
2022-11-01T20:58:40.889Z,2.20
2022-11-01T21:01:16.305Z,2.92
2022-11-01T21:03:44.660Z,2.10
2022-11-01T21:06:14.570Z,2.65
2022-11-01T21:08:45.014Z,2.38
2022-11-01T21:11:17.921Z,2.17
2022-11-01T21:13:47.434Z,2.72
2022-11-01T21:16:22.643Z,2.03
2022-11-01T21:18:53.549Z,2.67
2022-11-01T21:21:31.478Z,2.50
2022-11-01T21:24:01.368Z,2.33
2022-11-01T21:26:34.111Z,2.10
2022-11-01T21:29:15.679Z,2.58
2022-11-01T21:31:44.111Z,2.65
2022-11-01T21:34:24.392Z,2.00
2022-11-01T21:36:52.472Z,2.22
2022-11-01T21:39:23.331Z,2.50
2022-11-01T21:41:52.465Z,2.28
2022-11-01T21:44:29.359Z,2.42
2022-11-01T21:47:02.384Z,2.30
2022-11-01T21:49:31.965Z,2.50
2022-11-01T21:52:01.432Z,1.90
2022-11-01T21:54:31.441Z,2.40
2022-11-01T21:56:59.913Z,2.50
2022-11-01T21:59:30.160Z,2.45
2022-11-01T22:02:01.356Z,2.10
2022-11-01T22:04:30.953Z,2.42
2022-11-01T22:06:59.955Z,2.25
2022-11-01T22:09:28.372Z,2.20
2022-11-01T22:11:56.722Z,2.63
2022-11-01T22:14:24.970Z,1.83
2022-11-01T22:16:54.718Z,2.25
2022-11-01T22:19:22.654Z,2.30
2022-11-01T22:21:50.661Z,2.35
2022-11-01T22:24:18.711Z,2.83
2022-11-01T22:26:46.694Z,2.25
2022-11-01T22:29:14.667Z,2.58
2022-11-01T22:31:42.776Z,2.63
2022-11-01T22:34:12.120Z,2.67
2022-11-01T22:36:43.040Z,2.30
2022-11-01T22:39:20.821Z,2.03
2022-11-01T22:41:49.115Z,2.58
2022-11-01T22:44:19.858Z,2.13
2022-11-01T22:46:55.107Z,2.42
2022-11-01T22:49:29.880Z,2.70
2022-11-01T22:52:00.896Z,2.50
2022-11-01T22:54:36.011Z,2.38
2022-11-01T22:57:15.733Z,1.95
2022-11-01T22:59:46.967Z,2.55
2022-11-01T23:02:28.598Z,2.38
2022-11-01T23:05:18.090Z,2.30
2022-11-01T23:07:48.381Z,2.42
2022-11-01T23:10:28.227Z,1.95
2022-11-01T23:13:30.454Z,2.65
2022-11-01T23:16:00.775Z,2.15
2022-11-01T23:18:31.957Z,2.38
2022-11-01T23:21:04.012Z,2.63
2022-11-01T23:23:32.368Z,1.80
2022-11-01T23:26:03.145Z,1.98
2022-11-01T23:28:35.588Z,2.58
2022-11-01T23:31:04.629Z,1.95
2022-11-01T23:33:37.502Z,2.20
2022-11-01T23:36:14.658Z,2.30
2022-11-01T23:38:47.286Z,2.47
2022-11-01T23:41:22.603Z,2.33
2022-11-01T23:43:51.620Z,2.08
2022-11-01T23:46:20.263Z,2.15
2022-11-01T23:48:48.452Z,2.05
2022-11-01T23:51:21.740Z,2.00
2022-11-01T23:53:54.075Z,2.17
2022-11-01T23:56:23.290Z,2.30
2022-11-01T23:58:56.818Z,2.65
